sensor_id;sensor_type;location;lat;lon;timestamp;P1;durP1;ratioP1;P2;durP2;ratioP2
70829;SDS011;58451;51.550;7.208;2023-05-07T00:00:48;21.00;;;13.60;;
70829;SDS011;58451;51.550;7.208;2023-05-07T00:02:21;22.90;;;15.30;;
70829;SDS011;58451;51.550;7.208;2023-05-07T00:03:54;22.80;;;15.10;;
70829;SDS011;58451;51.550;7.208;2023-05-07T00:05:26;19.80;;;13.20;;
70829;SDS011;58451;51.550;7.208;2023-05-07T00:06:58;21.20;;;14.00;;
70829;SDS011;58451;51.550;7.208;2023-05-07T00:08:33;21.00;;;14.70;;
70829;SDS011;58451;51.550;7.208;2023-05-07T00:10:05;21.90;;;14.20;;
70829;SDS011;58451;51.550;7.208;2023-05-07T00:11:38;19.60;;;13.60;;
70829;SDS011;58451;51.550;7.208;2023-05-07T00:13:10;21.40;;;14.80;;
70829;SDS011;58451;51.550;7.208;2023-05-07T00:14:42;23.50;;;15.30;;
70829;SDS011;58451;51.550;7.208;2023-05-07T00:16:14;23.30;;;15.80;;
70829;SDS011;58451;51.550;7.208;2023-05-07T00:17:46;23.70;;;15.20;;
70829;SDS011;58451;51.550;7.208;2023-05-07T00:19:17;22.90;;;14.60;;
70829;SDS011;58451;51.550;7.208;2023-05-07T00:20:49;19.60;;;13.50;;
70829;SDS011;58451;51.550;7.208;2023-05-07T00:22:21;21.60;;;14.50;;
70829;SDS011;58451;51.550;7.208;2023-05-07T00:23:53;22.20;;;15.00;;
70829;SDS011;58451;51.550;7.208;2023-05-07T00:25:27;22.60;;;14.20;;
70829;SDS011;58451;51.550;7.208;2023-05-07T00:26:59;24.40;;;15.20;;
70829;SDS011;58451;51.550;7.208;2023-05-07T00:28:30;22.00;;;15.00;;
70829;SDS011;58451;51.550;7.208;2023-05-07T00:30:03;21.90;;;15.20;;
70829;SDS011;58451;51.550;7.208;2023-05-07T00:31:35;24.50;;;15.30;;
70829;SDS011;58451;51.550;7.208;2023-05-07T00:33:07;24.20;;;16.60;;
70829;SDS011;58451;51.550;7.208;2023-05-07T00:34:39;25.40;;;16.40;;
70829;SDS011;58451;51.550;7.208;2023-05-07T00:36:12;24.80;;;16.80;;
70829;SDS011;58451;51.550;7.208;2023-05-07T00:37:43;23.70;;;17.00;;
70829;SDS011;58451;51.550;7.208;2023-05-07T00:39:16;24.10;;;16.30;;
70829;SDS011;58451;51.550;7.208;2023-05-07T00:40:48;25.50;;;17.60;;
70829;SDS011;58451;51.550;7.208;2023-05-07T00:42:20;26.60;;;17.80;;
70829;SDS011;58451;51.550;7.208;2023-05-07T00:43:52;28.90;;;19.00;;
70829;SDS011;58451;51.550;7.208;2023-05-07T00:45:27;27.10;;;18.30;;
70829;SDS011;58451;51.550;7.208;2023-05-07T00:47:02;28.60;;;19.00;;
70829;SDS011;58451;51.550;7.208;2023-05-07T00:48:36;27.30;;;18.50;;
70829;SDS011;58451;51.550;7.208;2023-05-07T00:50:09;30.90;;;20.30;;
70829;SDS011;58451;51.550;7.208;2023-05-07T00:51:42;29.90;;;20.30;;
70829;SDS011;58451;51.550;7.208;2023-05-07T00:53:15;25.80;;;17.40;;
70829;SDS011;58451;51.550;7.208;2023-05-07T00:54:47;32.40;;;20.40;;
70829;SDS011;58451;51.550;7.208;2023-05-07T00:56:21;33.70;;;20.70;;
70829;SDS011;58451;51.550;7.208;2023-05-07T00:57:53;30.10;;;20.50;;
70829;SDS011;58451;51.550;7.208;2023-05-07T00:59:25;25.10;;;16.00;;
70829;SDS011;58451;51.550;7.208;2023-05-07T01:00:57;33.00;;;21.20;;
70829;SDS011;58451;51.550;7.208;2023-05-07T01:02:29;32.50;;;22.00;;
70829;SDS011;58451;51.550;7.208;2023-05-07T01:04:02;30.20;;;19.90;;
70829;SDS011;58451;51.550;7.208;2023-05-07T01:05:35;32.40;;;21.60;;
70829;SDS011;58451;51.550;7.208;2023-05-07T01:07:07;26.30;;;16.40;;
70829;SDS011;58451;51.550;7.208;2023-05-07T01:08:40;30.80;;;20.00;;
70829;SDS011;58451;51.550;7.208;2023-05-07T01:10:14;33.60;;;21.90;;
70829;SDS011;58451;51.550;7.208;2023-05-07T01:11:47;28.80;;;19.00;;
70829;SDS011;58451;51.550;7.208;2023-05-07T01:13:22;27.60;;;18.30;;
70829;SDS011;58451;51.550;7.208;2023-05-07T01:14:55;29.60;;;20.00;;
70829;SDS011;58451;51.550;7.208;2023-05-07T01:16:27;30.20;;;21.00;;
70829;SDS011;58451;51.550;7.208;2023-05-07T01:17:59;31.20;;;20.00;;
70829;SDS011;58451;51.550;7.208;2023-05-07T01:19:35;31.20;;;20.80;;
70829;SDS011;58451;51.550;7.208;2023-05-07T01:21:10;32.10;;;19.90;;
70829;SDS011;58451;51.550;7.208;2023-05-07T01:22:43;31.70;;;20.30;;
70829;SDS011;58451;51.550;7.208;2023-05-07T01:24:15;31.90;;;19.00;;
70829;SDS011;58451;51.550;7.208;2023-05-07T01:25:54;29.90;;;20.10;;
70829;SDS011;58451;51.550;7.208;2023-05-07T01:27:27;27.10;;;17.30;;
70829;SDS011;58451;51.550;7.208;2023-05-07T01:28:59;29.20;;;19.50;;
70829;SDS011;58451;51.550;7.208;2023-05-07T01:30:32;28.50;;;18.30;;
70829;SDS011;58451;51.550;7.208;2023-05-07T01:32:07;23.60;;;14.20;;
70829;SDS011;58451;51.550;7.208;2023-05-07T01:33:40;23.80;;;15.60;;
70829;SDS011;58451;51.550;7.208;2023-05-07T01:35:19;26.50;;;17.50;;
70829;SDS011;58451;51.550;7.208;2023-05-07T01:36:56;28.20;;;18.20;;
70829;SDS011;58451;51.550;7.208;2023-05-07T01:38:29;38.50;;;22.60;;
70829;SDS011;58451;51.550;7.208;2023-05-07T01:40:02;29.80;;;19.90;;
70829;SDS011;58451;51.550;7.208;2023-05-07T01:41:34;38.60;;;24.70;;
70829;SDS011;58451;51.550;7.208;2023-05-07T01:43:07;29.40;;;19.50;;
70829;SDS011;58451;51.550;7.208;2023-05-07T01:44:41;28.00;;;18.80;;
70829;SDS011;58451;51.550;7.208;2023-05-07T01:46:12;31.00;;;20.10;;
70829;SDS011;58451;51.550;7.208;2023-05-07T01:47:47;30.20;;;19.30;;
70829;SDS011;58451;51.550;7.208;2023-05-07T01:49:21;30.00;;;19.70;;
70829;SDS011;58451;51.550;7.208;2023-05-07T01:50:53;31.00;;;19.40;;
70829;SDS011;58451;51.550;7.208;2023-05-07T01:52:27;29.40;;;18.20;;
70829;SDS011;58451;51.550;7.208;2023-05-07T01:54:00;28.70;;;18.20;;
70829;SDS011;58451;51.550;7.208;2023-05-07T01:55:32;29.90;;;19.50;;
70829;SDS011;58451;51.550;7.208;2023-05-07T01:57:04;28.60;;;18.20;;
70829;SDS011;58451;51.550;7.208;2023-05-07T01:58:36;30.10;;;17.80;;
70829;SDS011;58451;51.550;7.208;2023-05-07T02:00:11;23.70;;;14.70;;
70829;SDS011;58451;51.550;7.208;2023-05-07T02:01:47;26.50;;;16.60;;
70829;SDS011;58451;51.550;7.208;2023-05-07T02:03:19;26.60;;;15.80;;
70829;SDS011;58451;51.550;7.208;2023-05-07T02:04:56;26.40;;;16.40;;
70829;SDS011;58451;51.550;7.208;2023-05-07T02:06:28;26.30;;;16.30;;
70829;SDS011;58451;51.550;7.208;2023-05-07T02:08:05;27.70;;;17.70;;
70829;SDS011;58451;51.550;7.208;2023-05-07T02:09:37;26.40;;;16.90;;
70829;SDS011;58451;51.550;7.208;2023-05-07T02:11:09;24.50;;;14.90;;
70829;SDS011;58451;51.550;7.208;2023-05-07T02:12:41;27.00;;;16.90;;
70829;SDS011;58451;51.550;7.208;2023-05-07T02:14:14;28.40;;;17.70;;
70829;SDS011;58451;51.550;7.208;2023-05-07T02:15:46;24.00;;;16.20;;
70829;SDS011;58451;51.550;7.208;2023-05-07T02:17:22;27.00;;;17.20;;
70829;SDS011;58451;51.550;7.208;2023-05-07T02:18:54;22.50;;;13.20;;
70829;SDS011;58451;51.550;7.208;2023-05-07T02:20:26;24.70;;;15.70;;
70829;SDS011;58451;51.550;7.208;2023-05-07T02:21:59;25.10;;;15.70;;
70829;SDS011;58451;51.550;7.208;2023-05-07T02:23:33;23.50;;;15.10;;
70829;SDS011;58451;51.550;7.208;2023-05-07T02:25:06;27.40;;;18.00;;
70829;SDS011;58451;51.550;7.208;2023-05-07T02:26:39;26.30;;;16.90;;
70829;SDS011;58451;51.550;7.208;2023-05-07T02:28:12;25.80;;;16.20;;
70829;SDS011;58451;51.550;7.208;2023-05-07T02:29:52;28.20;;;18.20;;
70829;SDS011;58451;51.550;7.208;2023-05-07T02:31:24;27.60;;;17.50;;
70829;SDS011;58451;51.550;7.208;2023-05-07T02:32:56;30.50;;;18.50;;
70829;SDS011;58451;51.550;7.208;2023-05-07T02:34:28;30.00;;;19.10;;
70829;SDS011;58451;51.550;7.208;2023-05-07T02:36:10;32.00;;;18.80;;
70829;SDS011;58451;51.550;7.208;2023-05-07T02:37:51;30.10;;;18.50;;
70829;SDS011;58451;51.550;7.208;2023-05-07T02:39:23;29.70;;;18.50;;
70829;SDS011;58451;51.550;7.208;2023-05-07T02:40:55;29.80;;;18.50;;
70829;SDS011;58451;51.550;7.208;2023-05-07T02:42:26;33.20;;;19.10;;
70829;SDS011;58451;51.550;7.208;2023-05-07T02:43:58;30.10;;;18.60;;
70829;SDS011;58451;51.550;7.208;2023-05-07T02:45:31;31.20;;;19.70;;
70829;SDS011;58451;51.550;7.208;2023-05-07T02:47:04;30.40;;;19.10;;
70829;SDS011;58451;51.550;7.208;2023-05-07T02:48:36;28.40;;;18.10;;
70829;SDS011;58451;51.550;7.208;2023-05-07T02:50:09;28.90;;;18.40;;
70829;SDS011;58451;51.550;7.208;2023-05-07T02:51:41;30.80;;;18.70;;
70829;SDS011;58451;51.550;7.208;2023-05-07T02:53:16;30.60;;;18.50;;
70829;SDS011;58451;51.550;7.208;2023-05-07T02:54:48;32.00;;;19.60;;
70829;SDS011;58451;51.550;7.208;2023-05-07T02:56:19;30.90;;;18.90;;
70829;SDS011;58451;51.550;7.208;2023-05-07T02:57:52;31.90;;;20.00;;
70829;SDS011;58451;51.550;7.208;2023-05-07T02:59:24;31.90;;;20.30;;
70829;SDS011;58451;51.550;7.208;2023-05-07T03:00:57;30.80;;;20.30;;
70829;SDS011;58451;51.550;7.208;2023-05-07T03:02:41;33.70;;;19.90;;
70829;SDS011;58451;51.550;7.208;2023-05-07T03:04:13;34.30;;;19.90;;
70829;SDS011;58451;51.550;7.208;2023-05-07T03:05:45;34.60;;;20.50;;
70829;SDS011;58451;51.550;7.208;2023-05-07T03:07:16;32.00;;;18.60;;
70829;SDS011;58451;51.550;7.208;2023-05-07T03:08:48;34.90;;;20.20;;
70829;SDS011;58451;51.550;7.208;2023-05-07T03:10:20;35.40;;;20.30;;
70829;SDS011;58451;51.550;7.208;2023-05-07T03:11:52;31.80;;;18.80;;
70829;SDS011;58451;51.550;7.208;2023-05-07T03:13:24;36.40;;;20.50;;
70829;SDS011;58451;51.550;7.208;2023-05-07T03:14:56;38.70;;;21.10;;
70829;SDS011;58451;51.550;7.208;2023-05-07T03:16:28;40.30;;;21.30;;
70829;SDS011;58451;51.550;7.208;2023-05-07T03:18:00;39.30;;;21.60;;
70829;SDS011;58451;51.550;7.208;2023-05-07T03:19:32;40.70;;;21.40;;
70829;SDS011;58451;51.550;7.208;2023-05-07T03:21:04;38.50;;;20.80;;
70829;SDS011;58451;51.550;7.208;2023-05-07T03:22:37;37.50;;;21.70;;
70829;SDS011;58451;51.550;7.208;2023-05-07T03:24:08;41.00;;;21.50;;
70829;SDS011;58451;51.550;7.208;2023-05-07T03:25:40;41.00;;;22.20;;
70829;SDS011;58451;51.550;7.208;2023-05-07T03:27:12;45.20;;;22.40;;
70829;SDS011;58451;51.550;7.208;2023-05-07T03:28:44;44.60;;;21.80;;
70829;SDS011;58451;51.550;7.208;2023-05-07T03:30:17;45.40;;;22.40;;
70829;SDS011;58451;51.550;7.208;2023-05-07T03:31:50;45.30;;;22.70;;
70829;SDS011;58451;51.550;7.208;2023-05-07T03:33:23;44.00;;;21.70;;
70829;SDS011;58451;51.550;7.208;2023-05-07T03:34:55;44.80;;;23.30;;
70829;SDS011;58451;51.550;7.208;2023-05-07T03:36:27;40.10;;;21.40;;
70829;SDS011;58451;51.550;7.208;2023-05-07T03:38:00;42.40;;;20.90;;
70829;SDS011;58451;51.550;7.208;2023-05-07T03:39:32;39.20;;;19.90;;
70829;SDS011;58451;51.550;7.208;2023-05-07T03:41:05;37.20;;;20.40;;
70829;SDS011;58451;51.550;7.208;2023-05-07T03:42:36;39.60;;;20.50;;
70829;SDS011;58451;51.550;7.208;2023-05-07T03:44:08;40.10;;;20.70;;
70829;SDS011;58451;51.550;7.208;2023-05-07T03:45:40;34.70;;;19.30;;
70829;SDS011;58451;51.550;7.208;2023-05-07T03:47:23;37.00;;;19.70;;
70829;SDS011;58451;51.550;7.208;2023-05-07T03:48:55;32.20;;;18.00;;
70829;SDS011;58451;51.550;7.208;2023-05-07T03:50:27;31.90;;;17.20;;
70829;SDS011;58451;51.550;7.208;2023-05-07T03:51:58;32.70;;;16.80;;
70829;SDS011;58451;51.550;7.208;2023-05-07T03:53:31;34.20;;;19.00;;
70829;SDS011;58451;51.550;7.208;2023-05-07T03:55:03;34.80;;;18.80;;
70829;SDS011;58451;51.550;7.208;2023-05-07T03:56:35;32.00;;;18.20;;
70829;SDS011;58451;51.550;7.208;2023-05-07T03:58:07;32.20;;;18.30;;
70829;SDS011;58451;51.550;7.208;2023-05-07T03:59:39;33.20;;;19.00;;
70829;SDS011;58451;51.550;7.208;2023-05-07T04:01:11;34.60;;;19.40;;
70829;SDS011;58451;51.550;7.208;2023-05-07T04:02:43;32.20;;;17.90;;
70829;SDS011;58451;51.550;7.208;2023-05-07T04:04:15;32.40;;;18.70;;
70829;SDS011;58451;51.550;7.208;2023-05-07T04:05:48;33.60;;;18.40;;
70829;SDS011;58451;51.550;7.208;2023-05-07T04:07:19;34.70;;;19.10;;
70829;SDS011;58451;51.550;7.208;2023-05-07T04:08:53;29.20;;;16.70;;
70829;SDS011;58451;51.550;7.208;2023-05-07T04:10:25;29.90;;;17.60;;
70829;SDS011;58451;51.550;7.208;2023-05-07T04:11:58;32.50;;;17.80;;
70829;SDS011;58451;51.550;7.208;2023-05-07T04:13:30;33.90;;;18.70;;
70829;SDS011;58451;51.550;7.208;2023-05-07T04:15:02;33.60;;;18.80;;
70829;SDS011;58451;51.550;7.208;2023-05-07T04:16:35;29.50;;;17.70;;
70829;SDS011;58451;51.550;7.208;2023-05-07T04:18:07;28.20;;;16.90;;
70829;SDS011;58451;51.550;7.208;2023-05-07T04:19:39;28.10;;;16.00;;
70829;SDS011;58451;51.550;7.208;2023-05-07T04:21:16;26.40;;;15.60;;
70829;SDS011;58451;51.550;7.208;2023-05-07T04:22:49;26.90;;;17.00;;
70829;SDS011;58451;51.550;7.208;2023-05-07T04:24:21;28.30;;;17.00;;
70829;SDS011;58451;51.550;7.208;2023-05-07T04:25:53;25.20;;;14.00;;
70829;SDS011;58451;51.550;7.208;2023-05-07T04:27:29;22.00;;;12.60;;
70829;SDS011;58451;51.550;7.208;2023-05-07T04:29:01;24.60;;;15.50;;
70829;SDS011;58451;51.550;7.208;2023-05-07T04:30:36;27.10;;;15.80;;
70829;SDS011;58451;51.550;7.208;2023-05-07T04:32:09;24.90;;;15.10;;
70829;SDS011;58451;51.550;7.208;2023-05-07T04:33:41;23.70;;;14.40;;
70829;SDS011;58451;51.550;7.208;2023-05-07T04:35:15;24.50;;;15.40;;
70829;SDS011;58451;51.550;7.208;2023-05-07T04:36:47;24.40;;;15.40;;
70829;SDS011;58451;51.550;7.208;2023-05-07T04:38:19;26.60;;;15.70;;
70829;SDS011;58451;51.550;7.208;2023-05-07T04:39:52;23.00;;;14.50;;
70829;SDS011;58451;51.550;7.208;2023-05-07T04:41:25;24.20;;;14.50;;
70829;SDS011;58451;51.550;7.208;2023-05-07T04:42:58;21.50;;;12.50;;
70829;SDS011;58451;51.550;7.208;2023-05-07T04:44:30;21.80;;;14.50;;
70829;SDS011;58451;51.550;7.208;2023-05-07T04:46:02;24.20;;;14.60;;
70829;SDS011;58451;51.550;7.208;2023-05-07T04:47:34;21.10;;;13.50;;
70829;SDS011;58451;51.550;7.208;2023-05-07T04:49:06;22.20;;;12.80;;
70829;SDS011;58451;51.550;7.208;2023-05-07T04:50:38;19.30;;;12.10;;
70829;SDS011;58451;51.550;7.208;2023-05-07T04:52:10;21.60;;;13.90;;
70829;SDS011;58451;51.550;7.208;2023-05-07T04:53:42;21.00;;;12.70;;
70829;SDS011;58451;51.550;7.208;2023-05-07T04:55:15;20.70;;;13.30;;
70829;SDS011;58451;51.550;7.208;2023-05-07T04:56:47;18.20;;;12.00;;
70829;SDS011;58451;51.550;7.208;2023-05-07T04:58:19;19.70;;;12.20;;
70829;SDS011;58451;51.550;7.208;2023-05-07T04:59:51;16.40;;;9.90;;
70829;SDS011;58451;51.550;7.208;2023-05-07T05:01:22;16.20;;;10.40;;
70829;SDS011;58451;51.550;7.208;2023-05-07T05:02:54;16.30;;;11.00;;
70829;SDS011;58451;51.550;7.208;2023-05-07T05:04:27;16.30;;;10.60;;
70829;SDS011;58451;51.550;7.208;2023-05-07T05:05:58;16.00;;;10.20;;
70829;SDS011;58451;51.550;7.208;2023-05-07T05:07:33;16.60;;;10.80;;
70829;SDS011;58451;51.550;7.208;2023-05-07T05:09:05;15.80;;;10.60;;
70829;SDS011;58451;51.550;7.208;2023-05-07T05:10:37;16.10;;;10.80;;
70829;SDS011;58451;51.550;7.208;2023-05-07T05:12:09;17.00;;;10.10;;
70829;SDS011;58451;51.550;7.208;2023-05-07T05:13:41;16.10;;;10.70;;
70829;SDS011;58451;51.550;7.208;2023-05-07T05:15:20;14.50;;;9.80;;
70829;SDS011;58451;51.550;7.208;2023-05-07T05:16:52;15.60;;;9.40;;
70829;SDS011;58451;51.550;7.208;2023-05-07T05:18:24;15.20;;;9.90;;
70829;SDS011;58451;51.550;7.208;2023-05-07T05:19:55;14.80;;;10.30;;
70829;SDS011;58451;51.550;7.208;2023-05-07T05:21:28;14.30;;;8.80;;
70829;SDS011;58451;51.550;7.208;2023-05-07T05:23:03;15.10;;;9.80;;
70829;SDS011;58451;51.550;7.208;2023-05-07T05:24:35;14.50;;;9.20;;
70829;SDS011;58451;51.550;7.208;2023-05-07T05:26:07;15.80;;;9.70;;
70829;SDS011;58451;51.550;7.208;2023-05-07T05:27:39;14.80;;;9.50;;
70829;SDS011;58451;51.550;7.208;2023-05-07T05:29:11;14.80;;;8.60;;
70829;SDS011;58451;51.550;7.208;2023-05-07T05:30:44;15.10;;;9.20;;
70829;SDS011;58451;51.550;7.208;2023-05-07T05:32:16;12.30;;;7.60;;
70829;SDS011;58451;51.550;7.208;2023-05-07T05:33:48;14.00;;;8.80;;
70829;SDS011;58451;51.550;7.208;2023-05-07T05:35:21;13.00;;;8.50;;
70829;SDS011;58451;51.550;7.208;2023-05-07T05:36:53;15.50;;;8.60;;
70829;SDS011;58451;51.550;7.208;2023-05-07T05:38:25;13.20;;;8.80;;
70829;SDS011;58451;51.550;7.208;2023-05-07T05:39:57;12.60;;;8.40;;
70829;SDS011;58451;51.550;7.208;2023-05-07T05:41:30;13.40;;;8.60;;
70829;SDS011;58451;51.550;7.208;2023-05-07T05:43:02;13.20;;;7.80;;
70829;SDS011;58451;51.550;7.208;2023-05-07T05:44:34;13.50;;;7.90;;
70829;SDS011;58451;51.550;7.208;2023-05-07T05:46:06;12.40;;;7.90;;
70829;SDS011;58451;51.550;7.208;2023-05-07T05:47:40;13.60;;;7.50;;
70829;SDS011;58451;51.550;7.208;2023-05-07T05:49:12;11.80;;;7.50;;
70829;SDS011;58451;51.550;7.208;2023-05-07T05:50:45;11.20;;;6.90;;
70829;SDS011;58451;51.550;7.208;2023-05-07T05:52:17;11.10;;;7.40;;
70829;SDS011;58451;51.550;7.208;2023-05-07T05:53:50;11.90;;;7.30;;
70829;SDS011;58451;51.550;7.208;2023-05-07T05:55:21;11.60;;;6.80;;
70829;SDS011;58451;51.550;7.208;2023-05-07T05:56:53;12.00;;;6.70;;
70829;SDS011;58451;51.550;7.208;2023-05-07T05:58:26;9.90;;;6.00;;
70829;SDS011;58451;51.550;7.208;2023-05-07T06:00:02;11.20;;;6.60;;
70829;SDS011;58451;51.550;7.208;2023-05-07T06:01:36;9.50;;;5.60;;
70829;SDS011;58451;51.550;7.208;2023-05-07T06:03:08;9.80;;;6.00;;
70829;SDS011;58451;51.550;7.208;2023-05-07T06:04:40;10.80;;;6.10;;
70829;SDS011;58451;51.550;7.208;2023-05-07T06:06:14;10.60;;;5.60;;
70829;SDS011;58451;51.550;7.208;2023-05-07T06:07:46;9.80;;;5.70;;
70829;SDS011;58451;51.550;7.208;2023-05-07T06:09:18;10.00;;;4.90;;
70829;SDS011;58451;51.550;7.208;2023-05-07T06:10:50;10.20;;;5.40;;
70829;SDS011;58451;51.550;7.208;2023-05-07T06:12:22;9.60;;;5.70;;
70829;SDS011;58451;51.550;7.208;2023-05-07T06:13:54;8.40;;;4.60;;
70829;SDS011;58451;51.550;7.208;2023-05-07T06:15:26;9.20;;;4.50;;
70829;SDS011;58451;51.550;7.208;2023-05-07T06:16:59;9.10;;;5.10;;
70829;SDS011;58451;51.550;7.208;2023-05-07T06:18:31;9.50;;;5.20;;
70829;SDS011;58451;51.550;7.208;2023-05-07T06:20:03;9.20;;;5.30;;
70829;SDS011;58451;51.550;7.208;2023-05-07T06:21:35;10.00;;;4.80;;
70829;SDS011;58451;51.550;7.208;2023-05-07T06:23:07;10.40;;;4.60;;
70829;SDS011;58451;51.550;7.208;2023-05-07T06:24:39;8.30;;;4.60;;
70829;SDS011;58451;51.550;7.208;2023-05-07T06:26:12;8.30;;;4.90;;
70829;SDS011;58451;51.550;7.208;2023-05-07T06:27:45;9.40;;;4.60;;
70829;SDS011;58451;51.550;7.208;2023-05-07T06:29:17;9.70;;;4.40;;
70829;SDS011;58451;51.550;7.208;2023-05-07T06:30:50;9.30;;;4.70;;
70829;SDS011;58451;51.550;7.208;2023-05-07T06:32:22;8.30;;;4.50;;
70829;SDS011;58451;51.550;7.208;2023-05-07T06:33:54;8.50;;;4.80;;
70829;SDS011;58451;51.550;7.208;2023-05-07T06:35:27;8.50;;;4.70;;
70829;SDS011;58451;51.550;7.208;2023-05-07T06:36:59;7.90;;;4.30;;
70829;SDS011;58451;51.550;7.208;2023-05-07T06:38:41;8.10;;;4.20;;
70829;SDS011;58451;51.550;7.208;2023-05-07T06:40:12;8.40;;;4.40;;
70829;SDS011;58451;51.550;7.208;2023-05-07T06:41:45;9.30;;;4.70;;
70829;SDS011;58451;51.550;7.208;2023-05-07T06:43:25;9.10;;;4.30;;
70829;SDS011;58451;51.550;7.208;2023-05-07T06:45:31;6.40;;;3.70;;
70829;SDS011;58451;51.550;7.208;2023-05-07T06:47:03;7.20;;;4.20;;
70829;SDS011;58451;51.550;7.208;2023-05-07T06:48:35;7.70;;;3.60;;
70829;SDS011;58451;51.550;7.208;2023-05-07T06:50:08;8.00;;;4.30;;
70829;SDS011;58451;51.550;7.208;2023-05-07T06:51:42;8.10;;;3.90;;
70829;SDS011;58451;51.550;7.208;2023-05-07T06:53:14;7.30;;;4.40;;
70829;SDS011;58451;51.550;7.208;2023-05-07T06:54:46;7.40;;;4.20;;
70829;SDS011;58451;51.550;7.208;2023-05-07T06:56:20;7.40;;;4.10;;
70829;SDS011;58451;51.550;7.208;2023-05-07T06:57:52;7.60;;;4.30;;
70829;SDS011;58451;51.550;7.208;2023-05-07T06:59:25;8.60;;;4.90;;
70829;SDS011;58451;51.550;7.208;2023-05-07T07:00:57;8.60;;;4.80;;
70829;SDS011;58451;51.550;7.208;2023-05-07T07:02:29;7.80;;;4.30;;
70829;SDS011;58451;51.550;7.208;2023-05-07T07:04:01;6.30;;;3.60;;
70829;SDS011;58451;51.550;7.208;2023-05-07T07:05:33;8.10;;;4.30;;
70829;SDS011;58451;51.550;7.208;2023-05-07T07:07:06;8.60;;;4.10;;
70829;SDS011;58451;51.550;7.208;2023-05-07T07:08:39;6.50;;;3.20;;
70829;SDS011;58451;51.550;7.208;2023-05-07T07:10:11;7.40;;;3.70;;
70829;SDS011;58451;51.550;7.208;2023-05-07T07:11:43;8.20;;;4.30;;
70829;SDS011;58451;51.550;7.208;2023-05-07T07:13:15;6.70;;;3.80;;
70829;SDS011;58451;51.550;7.208;2023-05-07T07:14:47;8.00;;;3.90;;
70829;SDS011;58451;51.550;7.208;2023-05-07T07:16:20;7.40;;;4.10;;
70829;SDS011;58451;51.550;7.208;2023-05-07T07:17:54;7.80;;;3.50;;
70829;SDS011;58451;51.550;7.208;2023-05-07T07:19:26;7.00;;;3.90;;
70829;SDS011;58451;51.550;7.208;2023-05-07T07:20:59;8.50;;;4.20;;
70829;SDS011;58451;51.550;7.208;2023-05-07T07:22:32;7.10;;;3.80;;
70829;SDS011;58451;51.550;7.208;2023-05-07T07:24:04;7.00;;;4.00;;
70829;SDS011;58451;51.550;7.208;2023-05-07T07:25:36;8.30;;;4.00;;
70829;SDS011;58451;51.550;7.208;2023-05-07T07:27:08;6.90;;;4.10;;
70829;SDS011;58451;51.550;7.208;2023-05-07T07:28:46;6.70;;;3.80;;
70829;SDS011;58451;51.550;7.208;2023-05-07T07:30:21;6.10;;;3.50;;
70829;SDS011;58451;51.550;7.208;2023-05-07T07:31:53;7.80;;;3.90;;
70829;SDS011;58451;51.550;7.208;2023-05-07T07:33:25;8.30;;;4.40;;
70829;SDS011;58451;51.550;7.208;2023-05-07T07:34:57;8.30;;;3.80;;
70829;SDS011;58451;51.550;7.208;2023-05-07T07:36:29;7.40;;;4.00;;
70829;SDS011;58451;51.550;7.208;2023-05-07T07:38:16;9.30;;;4.10;;
70829;SDS011;58451;51.550;7.208;2023-05-07T07:39:47;7.80;;;4.10;;
70829;SDS011;58451;51.550;7.208;2023-05-07T07:41:19;9.70;;;4.50;;
70829;SDS011;58451;51.550;7.208;2023-05-07T07:42:52;8.80;;;4.70;;
70829;SDS011;58451;51.550;7.208;2023-05-07T07:44:25;8.30;;;4.30;;
70829;SDS011;58451;51.550;7.208;2023-05-07T07:46:01;8.50;;;4.50;;
70829;SDS011;58451;51.550;7.208;2023-05-07T07:47:33;9.60;;;4.80;;
70829;SDS011;58451;51.550;7.208;2023-05-07T07:49:05;9.30;;;4.40;;
70829;SDS011;58451;51.550;7.208;2023-05-07T07:50:37;10.40;;;4.60;;
70829;SDS011;58451;51.550;7.208;2023-05-07T07:52:18;9.40;;;4.60;;
70829;SDS011;58451;51.550;7.208;2023-05-07T07:53:50;7.80;;;4.10;;
70829;SDS011;58451;51.550;7.208;2023-05-07T07:55:22;9.10;;;4.70;;
70829;SDS011;58451;51.550;7.208;2023-05-07T07:56:55;7.60;;;4.50;;
70829;SDS011;58451;51.550;7.208;2023-05-07T07:58:28;9.10;;;4.80;;
70829;SDS011;58451;51.550;7.208;2023-05-07T08:00:00;8.40;;;4.90;;
70829;SDS011;58451;51.550;7.208;2023-05-07T08:01:33;9.40;;;5.00;;
70829;SDS011;58451;51.550;7.208;2023-05-07T08:03:08;9.70;;;5.40;;
70829;SDS011;58451;51.550;7.208;2023-05-07T08:04:42;10.00;;;4.60;;
70829;SDS011;58451;51.550;7.208;2023-05-07T08:06:18;8.80;;;5.40;;
70829;SDS011;58451;51.550;7.208;2023-05-07T08:18:09;8.70;;;4.90;;
70829;SDS011;58451;51.550;7.208;2023-05-07T08:19:42;8.10;;;4.90;;
70829;SDS011;58451;51.550;7.208;2023-05-07T08:21:16;8.00;;;4.90;;
70829;SDS011;58451;51.550;7.208;2023-05-07T08:22:48;11.20;;;5.80;;
70829;SDS011;58451;51.550;7.208;2023-05-07T08:24:20;10.10;;;6.20;;
70829;SDS011;58451;51.550;7.208;2023-05-07T08:25:53;10.70;;;6.10;;
70829;SDS011;58451;51.550;7.208;2023-05-07T08:27:24;9.70;;;5.50;;
70829;SDS011;58451;51.550;7.208;2023-05-07T08:28:56;9.80;;;5.80;;
70829;SDS011;58451;51.550;7.208;2023-05-07T08:30:28;10.00;;;5.90;;
70829;SDS011;58451;51.550;7.208;2023-05-07T08:32:01;9.20;;;5.80;;
70829;SDS011;58451;51.550;7.208;2023-05-07T08:33:32;10.20;;;6.10;;
70829;SDS011;58451;51.550;7.208;2023-05-07T08:35:05;9.90;;;6.00;;
70829;SDS011;58451;51.550;7.208;2023-05-07T08:36:37;9.20;;;5.90;;
70829;SDS011;58451;51.550;7.208;2023-05-07T08:38:09;9.90;;;5.30;;
70829;SDS011;58451;51.550;7.208;2023-05-07T08:39:41;11.00;;;6.10;;
70829;SDS011;58451;51.550;7.208;2023-05-07T08:41:18;10.60;;;6.40;;
70829;SDS011;58451;51.550;7.208;2023-05-07T08:42:52;11.30;;;6.60;;
70829;SDS011;58451;51.550;7.208;2023-05-07T08:44:26;10.50;;;6.60;;
70829;SDS011;58451;51.550;7.208;2023-05-07T08:46:00;10.60;;;6.00;;
70829;SDS011;58451;51.550;7.208;2023-05-07T08:47:42;10.40;;;7.40;;
70829;SDS011;58451;51.550;7.208;2023-05-07T08:49:20;9.90;;;5.70;;
70829;SDS011;58451;51.550;7.208;2023-05-07T08:50:52;9.00;;;5.10;;
70829;SDS011;58451;51.550;7.208;2023-05-07T08:52:25;11.90;;;6.00;;
70829;SDS011;58451;51.550;7.208;2023-05-07T08:53:59;9.60;;;6.70;;
70829;SDS011;58451;51.550;7.208;2023-05-07T08:55:35;10.60;;;5.80;;
70829;SDS011;58451;51.550;7.208;2023-05-07T08:57:07;10.20;;;6.40;;
70829;SDS011;58451;51.550;7.208;2023-05-07T08:58:39;10.50;;;6.60;;
70829;SDS011;58451;51.550;7.208;2023-05-07T09:00:11;10.60;;;7.20;;
70829;SDS011;58451;51.550;7.208;2023-05-07T09:01:44;14.20;;;7.00;;
70829;SDS011;58451;51.550;7.208;2023-05-07T09:03:17;9.10;;;5.50;;
70829;SDS011;58451;51.550;7.208;2023-05-07T09:04:51;8.90;;;5.90;;
70829;SDS011;58451;51.550;7.208;2023-05-07T09:06:24;11.60;;;6.60;;
70829;SDS011;58451;51.550;7.208;2023-05-07T09:07:59;11.60;;;7.10;;
70829;SDS011;58451;51.550;7.208;2023-05-07T09:09:33;11.10;;;6.90;;
70829;SDS011;58451;51.550;7.208;2023-05-07T09:11:05;11.60;;;7.30;;
70829;SDS011;58451;51.550;7.208;2023-05-07T09:12:37;12.90;;;7.40;;
70829;SDS011;58451;51.550;7.208;2023-05-07T09:14:11;11.70;;;7.70;;
70829;SDS011;58451;51.550;7.208;2023-05-07T09:15:45;10.60;;;7.20;;
70829;SDS011;58451;51.550;7.208;2023-05-07T09:17:18;11.90;;;7.30;;
70829;SDS011;58451;51.550;7.208;2023-05-07T09:18:54;11.70;;;6.60;;
70829;SDS011;58451;51.550;7.208;2023-05-07T09:20:26;11.80;;;7.40;;